Miami, FL

12:42 PM EDT on September 23, 2014 (GMT -0400)
Kendall-Tamiami Executive | Change Station
CLOSE
Current Station
Airport
Location: Kendall,
Elevation: 10 ft
Nearby Weather Stations
Active Advisory: Areal Flood Advisory

Elev 10 ft 25.64 °N, 80.43 °W | Updated 15 minutes ago

Overcast
Overcast
75 °F
Feels Like 75 °F
N
4
Wind Variable Wind from ENE

Today
High -- | Low -- °F
--% Chance of Precip.
Yesterday
High -- | Low -- °F
Precip. -- in
7:10 AM 7:17 PM
Waning Crescent, 0% visible
Pressure 30.07 in
Visibility 10.0 miles
Clouds Few 3400 ft
Scattered Clouds 6000 ft
Overcast 10000 ft
Dew Point 71 °F
Humidity 87%
Rainfall 0.00 in
Snow Depth Not available.
UV 4 out of 12
Pollen .30 out of 12
Ozone Good
PM2.5 Moderate
Flu Activity Not available.
SPECI KTMB 231627Z 06003KT 10SM FEW034 SCT060 OVC100 24/22 A3007 RMK AO2 LTG DSNT N AND S RAE19 TSB07E25 T02390217 PNO

More Conditions Fewer Conditions

Pressure 30.07 in
Visibility 10.0 miles
Clouds Few 3400 ft
Scattered Clouds 6000 ft
Overcast 10000 ft
Dew Point 71 °F
Humidity 87%
Rainfall 0.00 in
Snow Depth Not available.
UV 4 out of 12
Pollen .30 out of 12
Ozone Good
PM2.5 Moderate
Flu Activity Not available.
SPECI KTMB 231627Z 06003KT 10SM FEW034 SCT060 OVC100 24/22 A3007 RMK AO2 LTG DSNT N AND S RAE19 TSB07E25 T02390217 PNO

More Conditions Fewer Conditions

10-Day Weather Forecast

Almanac

Astronomy

Sep. 23, 2014 Rise Set
Actual Time 7:10 AM EDT 7:17 PM EDT
Civil Twilight 6:47 AM EDT 7:39 PM EDT
Nautical Twilight 6:21 AM EDT 8:06 PM EDT
Astronomical Twilight 5:54 AM EDT 8:33 PM EDT
Moon 6:34 AM EDT 6:56 PM EDT
Length of Visible Light 12h 52m
Length of Day
12h 06m
Tomorrow will be 1m 30s shorter.
Waning Crescent, 0% of the Moon is Illuminated
Today
Waning Crescent
Sep 24
New
Oct 1
First Quarter
Oct 8
Full
Oct 15
Last Quarter

Today's Extremes

State Highs State Lows

Community

WunderPhotos

Upload Photos

1,755,750 photos uploaded!

WunderBlogs® & News

By Dr. Jeff Masters
Director of Meteorology, Weather Underground
By Kari Strenfel
Meteorologist, Weather Underground
By Christopher C. Burt
Weather Historian, Weather Underground
September 23, 2014
September 23, 2014
September 23, 2014

Nearby

Air Quality

  Air Quality AQ Index Pollutant
Yesterday Good
PM2.5
Yesterday Good
OZONE
Current Moderate
PM2.5
Current Good
OZONE
Tuesday Good
OZONE
Tuesday Good
PM2.5
Wednesday Good
OZONE
Wednesday Good
PM2.5

Snow Depth

Station Depth Elevation
No new snow has been reported.

Earthquake Activity

City Distance Mag. Time & Date
No recent earthquake activity has been reported nearby.
Minimum magnitude displayed is 2.5.

Coastal Water Temperatures

Place Temperature
Virginia Key, FL 84.0 °F

Nearby Weather Stations